createdAt,value
2022-12-05T00:12:38.242Z,9.56
2022-12-05T00:19:26.514Z,9.56
2022-12-05T00:26:12.349Z,9.54
2022-12-05T00:32:58.089Z,9.65
2022-12-05T00:39:46.620Z,9.71
2022-12-05T00:46:35.119Z,9.71
2022-12-05T00:53:21.103Z,9.76
2022-12-05T01:00:11.469Z,9.78
2022-12-05T01:07:00.052Z,9.81
2022-12-05T01:13:46.284Z,9.80
2022-12-05T01:20:34.337Z,9.85
2022-12-05T01:27:19.907Z,9.90
2022-12-05T01:34:08.597Z,9.96
2022-12-05T01:41:05.005Z,9.97
2022-12-05T01:47:50.832Z,9.93
2022-12-05T01:54:38.837Z,9.92
2022-12-05T02:01:26.967Z,9.89
2022-12-05T02:08:14.699Z,9.84
2022-12-05T02:15:13.559Z,9.86
2022-12-05T02:22:50.405Z,9.96
2022-12-05T02:29:57.996Z,9.80
2022-12-05T02:36:48.950Z,9.91
2022-12-05T02:43:40.110Z,9.88
2022-12-05T02:50:35.534Z,9.90
2022-12-05T02:57:22.688Z,9.99
2022-12-05T03:04:09.886Z,10.05
2022-12-05T03:11:00.030Z,9.98
2022-12-05T03:17:54.435Z,10.08
2022-12-05T03:24:44.061Z,10.11
2022-12-05T03:31:43.501Z,10.12
2022-12-05T03:38:35.639Z,10.05
2022-12-05T04:06:14.022Z,10.14
2022-12-05T04:13:17.937Z,10.03
2022-12-05T04:20:21.043Z,9.96
2022-12-05T04:27:25.907Z,9.92
2022-12-05T04:34:15.749Z,9.64
2022-12-05T04:41:06.338Z,9.88
2022-12-05T04:47:58.718Z,9.63
2022-12-05T04:54:49.251Z,9.84
2022-12-05T05:01:40.613Z,9.79
2022-12-05T05:08:30.824Z,9.77
2022-12-05T05:15:16.403Z,9.93
2022-12-05T05:22:01.920Z,9.88
2022-12-05T05:28:50.544Z,9.89
2022-12-05T05:35:39.722Z,9.96
2022-12-05T05:42:25.300Z,10.05
2022-12-05T05:49:14.192Z,10.02
2022-12-05T05:55:59.699Z,10.04
2022-12-05T06:02:45.436Z,10.17
2022-12-05T06:09:33.514Z,10.16
2022-12-05T06:16:23.792Z,10.09
2022-12-05T06:23:09.298Z,10.07
2022-12-05T06:29:57.482Z,9.96
2022-12-05T06:36:43.086Z,10.00
2022-12-05T06:43:28.581Z,10.03
2022-12-05T06:50:16.639Z,9.95
2022-12-05T06:57:02.155Z,9.87
2022-12-05T07:03:48.914Z,9.93
2022-12-05T07:10:37.096Z,9.99
2022-12-05T07:17:23.503Z,9.75
2022-12-05T07:24:09.597Z,10.22
2022-12-05T07:31:06.536Z,10.20
2022-12-05T07:37:51.962Z,10.28
2022-12-05T07:44:37.648Z,10.25
2022-12-05T07:51:25.649Z,10.35
2022-12-05T07:58:11.077Z,10.43
2022-12-05T08:04:56.435Z,10.52
2022-12-05T08:11:48.292Z,10.55
2022-12-05T08:18:36.700Z,10.55
2022-12-05T08:25:22.242Z,10.60
2022-12-05T08:32:10.269Z,10.66
2022-12-05T08:39:00.400Z,10.70
2022-12-05T08:45:53.643Z,10.74
2022-12-05T08:52:41.652Z,10.77
2022-12-05T08:59:27.104Z,10.72
2022-12-05T09:06:15.790Z,10.82
2022-12-05T09:13:03.877Z,10.77
2022-12-05T09:19:49.499Z,10.84
2022-12-05T09:26:34.992Z,10.83
2022-12-05T09:33:23.200Z,10.81
2022-12-05T09:40:12.984Z,10.83
2022-12-05T09:47:02.831Z,10.92
2022-12-05T09:53:51.123Z,10.92
2022-12-05T10:00:37.472Z,10.96
2022-12-05T10:07:30.273Z,10.97
2022-12-05T10:14:34.171Z,11.05
2022-12-05T10:21:25.860Z,11.02
2022-12-05T10:28:26.753Z,11.03
2022-12-05T10:35:24.251Z,11.01
2022-12-05T10:42:12.603Z,11.06
2022-12-05T10:48:58.517Z,11.04
2022-12-05T10:56:28.140Z,11.01
2022-12-05T11:02:56.545Z,10.89
2022-12-05T11:09:42.484Z,10.75
2022-12-05T11:16:35.568Z,10.56
2022-12-05T11:23:29.918Z,10.54
2022-12-05T11:30:23.005Z,10.53
2022-12-05T11:37:17.721Z,10.49
2022-12-05T11:44:39.833Z,10.48
2022-12-05T11:51:40.468Z,10.46
2022-12-05T11:58:59.713Z,10.67
2022-12-05T12:05:57.519Z,10.71
2022-12-05T12:12:58.362Z,10.70
2022-12-05T12:20:10.571Z,10.67
2022-12-05T12:27:08.547Z,10.72
2022-12-05T12:34:02.465Z,10.75
2022-12-05T12:40:54.356Z,10.63
2022-12-05T12:47:53.870Z,10.60
2022-12-05T12:55:04.310Z,10.67
2022-12-05T13:01:58.712Z,10.69
2022-12-05T13:08:51.683Z,10.77
2022-12-05T13:15:41.688Z,10.73
2022-12-05T13:22:32.138Z,10.76
2022-12-05T13:29:25.397Z,10.82
2022-12-05T13:36:27.688Z,10.96
2022-12-05T13:43:19.330Z,10.83
2022-12-05T13:50:13.268Z,11.00
2022-12-05T13:57:02.758Z,10.99
2022-12-05T14:04:03.599Z,11.07
2022-12-05T14:11:14.155Z,11.10
2022-12-05T14:18:08.279Z,11.20
2022-12-05T14:25:06.729Z,11.21
2022-12-05T14:32:13.835Z,11.22
2022-12-05T14:38:59.500Z,11.34
2022-12-05T14:46:02.339Z,11.29
2022-12-05T14:52:48.770Z,11.25
2022-12-05T14:59:42.172Z,11.25
2022-12-05T15:06:30.669Z,11.27
2022-12-05T15:13:20.571Z,11.42
2022-12-05T15:20:11.401Z,11.12
2022-12-05T15:27:01.710Z,11.35
2022-12-05T15:33:54.861Z,11.34
2022-12-05T15:40:40.659Z,11.35
2022-12-05T15:47:29.845Z,11.35
2022-12-05T15:54:22.616Z,11.53
2022-12-05T16:01:19.199Z,11.49
2022-12-05T16:08:08.710Z,11.31
2022-12-05T16:15:00.075Z,11.39
2022-12-05T16:21:50.909Z,11.60
2022-12-05T16:28:39.260Z,11.56
2022-12-05T16:35:42.578Z,11.39
2022-12-05T16:42:29.596Z,11.50
2022-12-05T16:49:46.382Z,11.77
2022-12-05T16:56:34.961Z,11.38
2022-12-05T17:03:36.456Z,11.23
2022-12-05T17:10:25.808Z,11.14
2022-12-05T17:17:18.105Z,10.95
2022-12-05T17:24:04.268Z,10.98
2022-12-05T17:30:52.823Z,11.01
2022-12-05T17:37:38.300Z,10.98
2022-12-05T17:44:23.703Z,10.94
2022-12-05T17:51:14.596Z,10.97
2022-12-05T17:58:00.263Z,10.82
2022-12-05T18:04:45.922Z,10.75
2022-12-05T18:11:34.059Z,10.75
2022-12-05T18:18:21.611Z,10.37
2022-12-05T18:25:08.788Z,10.94
2022-12-05T18:31:56.937Z,10.97
2022-12-05T18:38:43.387Z,10.96
2022-12-05T18:45:29.070Z,11.21
2022-12-05T18:52:17.156Z,10.52
2022-12-05T18:59:05.598Z,11.12
2022-12-05T19:05:50.968Z,11.15
2022-12-05T19:12:39.338Z,11.18
2022-12-05T19:19:25.698Z,11.29
2022-12-05T19:26:13.400Z,11.20
2022-12-05T19:33:01.985Z,11.24
2022-12-05T19:39:48.133Z,11.20
2022-12-05T19:46:34.598Z,11.24
2022-12-05T19:53:22.580Z,11.14
2022-12-05T20:00:11.491Z,11.08
2022-12-05T20:06:59.929Z,11.19
2022-12-05T20:13:48.801Z,11.04
2022-12-05T20:20:34.245Z,11.12
2022-12-05T20:27:19.674Z,11.02
2022-12-05T20:34:08.420Z,11.06
2022-12-05T20:40:53.877Z,11.16
2022-12-05T20:47:39.516Z,11.28
2022-12-05T20:54:27.794Z,11.22
2022-12-05T21:01:16.372Z,11.21
2022-12-05T21:08:01.917Z,11.17
2022-12-05T21:14:50.791Z,11.16
2022-12-05T21:21:36.318Z,11.15
2022-12-05T21:28:21.906Z,10.93
2022-12-05T21:35:11.413Z,10.91
2022-12-05T21:41:58.204Z,10.82
2022-12-05T21:48:43.577Z,10.77
2022-12-05T21:55:31.478Z,10.76
2022-12-05T22:02:17.069Z,10.72
2022-12-05T22:09:02.795Z,10.68
2022-12-05T22:15:51.274Z,10.69
2022-12-05T22:22:38.955Z,10.77
2022-12-05T22:29:24.378Z,10.73
2022-12-05T22:36:15.166Z,10.78
2022-12-05T22:43:00.575Z,10.84
2022-12-05T22:49:46.250Z,10.83
2022-12-05T22:56:34.743Z,10.95
2022-12-05T23:03:20.288Z,10.98
2022-12-05T23:10:07.203Z,11.05
2022-12-05T23:16:55.057Z,11.44
2022-12-05T23:23:40.902Z,11.18
2022-12-05T23:30:26.375Z,11.02
2022-12-05T23:37:14.364Z,10.97
2022-12-05T23:44:02.024Z,10.54
2022-12-05T23:50:47.376Z,11.05
2022-12-05T23:57:35.681Z,11.04
